Time;durP1;ratioP1;P1;durP2;ratioP2;P2;SDS_P1;SDS_P2;PMS_P1;PMS_P2;Temp;Humidity;BMP_temperature;BMP_pressure;BME280_temperature;BME280_humidity;BME280_pressure;Samples;Min_cycle;Max_cycle;Signal;HPM_P1;HPM_P2
2023/04/29 00:01:06;;;;;;;17.07;10.10;;;;;;;-141.97;62.03;47588.28;5057228;28;20162;-81
2023/04/29 00:03:31;;;;;;;16.23;10.03;;;;;;;-141.97;62.38;47561.38;5060113;28;20203;-80
2023/04/29 00:05:58;;;;;;;15.33;10.43;;;;;;;-141.97;64.07;47576.75;5060082;28;20629;-80
2023/04/29 00:08:23;;;;;;;18.53;10.57;;;;;;;-141.97;65.77;47569.06;5057837;28;20235;-81
2023/04/29 00:10:49;;;;;;;18.57;11.23;;;;;;;-141.97;66.33;47553.69;5054520;28;20174;-80
2023/04/29 00:13:15;;;;;;;18.67;11.70;;;;;;;-141.97;67.82;47557.53;5054238;28;20652;-80
2023/04/29 00:15:41;;;;;;;19.60;11.63;;;;;;;-141.97;67.90;47542.16;5055090;28;20223;-80
2023/04/29 00:18:08;;;;;;;19.67;11.53;;;;;;;-141.97;67.81;47570.97;5053861;28;20173;-80
2023/04/29 00:20:33;;;;;;;18.70;11.20;;;;;;;-141.97;68.25;47559.44;5034888;28;20166;-80
2023/04/29 00:22:59;;;;;;;18.07;11.60;;;;;;;-141.97;68.56;47515.22;5053627;28;20536;-80
2023/04/29 00:25:25;;;;;;;22.30;13.00;;;;;;;-141.97;69.08;47557.53;5054417;28;20189;-80
2023/04/29 00:27:50;;;;;;;20.87;12.00;;;;;;;-141.97;69.53;47590.19;5037090;28;20674;-80
2023/04/29 00:30:15;;;;;;;17.60;11.70;;;;;;;-141.97;69.61;47570.97;5054476;28;20161;-80
2023/04/29 00:32:42;;;;;;;22.43;12.40;;;;;;;-141.97;69.53;47557.53;5053960;28;20693;-80
2023/04/29 00:35:08;;;;;;;19.00;11.27;;;;;;;-141.97;69.43;47565.22;5054660;28;20161;-80
2023/04/29 00:37:34;;;;;;;19.47;12.67;;;;;;;-141.97;69.03;47496.00;5054968;28;20606;-80
2023/04/29 00:39:59;;;;;;;18.93;11.77;;;;;;;-141.97;69.10;47553.69;5054685;28;20529;-80
2023/04/29 00:42:24;;;;;;;21.43;12.23;;;;;;;-141.97;67.99;47557.53;5053633;28;20165;-79
2023/04/29 00:44:50;;;;;;;19.17;11.60;;;;;;;-141.97;67.26;47582.50;5054456;28;20216;-80
2023/04/29 00:47:16;;;;;;;19.93;12.20;;;;;;;-141.97;67.09;47576.75;5053587;28;20172;-80
2023/04/29 00:49:42;;;;;;;18.90;11.57;;;;;;;-141.97;66.93;47578.66;5053236;28;20285;-80
2023/04/29 00:52:11;;;;;;;19.07;11.57;;;;;;;-141.97;66.95;47557.53;5053563;28;20164;-79
2023/04/29 00:54:37;;;;;;;18.50;12.00;;;;;;;-141.97;67.28;47546.00;5054923;28;20594;-79
2023/04/29 00:57:05;;;;;;;19.53;12.23;;;;;;;-141.97;67.21;47580.59;5054677;28;20376;-80
2023/04/29 00:59:32;;;;;;;21.93;12.10;;;;;;;-141.97;67.58;47592.13;5054263;28;20157;-79
2023/04/29 01:02:02;;;;;;;18.67;11.97;;;;;;;-141.97;69.42;47578.66;5054740;28;20275;-79
2023/04/29 01:04:28;;;;;;;19.70;12.10;;;;;;;-141.97;70.25;47557.53;5036858;28;20260;-80
2023/04/29 01:07:20;;;;;;;20.00;11.30;;;;;;;-141.97;70.55;47569.06;5055434;28;20253;-80
2023/04/29 01:10:01;;;;;;;18.47;11.13;;;;;;;-141.97;70.79;47546.00;4956498;29;20227;-80
2023/04/29 01:12:28;;;;;;;18.53;10.60;;;;;;;-141.97;71.59;47547.91;4937210;29;20420;-80
2023/04/29 01:15:22;;;;;;;20.67;12.30;;;;;;;-141.97;74.25;47601.72;4954133;29;20441;-80
2023/04/29 01:17:54;;;;;;;21.50;13.03;;;;;;;-141.97;75.96;47561.38;4951515;28;20447;-79
2023/04/29 01:20:23;;;;;;;22.70;13.47;;;;;;;-141.97;76.90;47569.06;4954746;29;20436;-79
2023/04/29 01:22:48;;;;;;;24.63;12.93;;;;;;;-141.97;77.79;47540.22;4973224;29;20435;-78
2023/04/29 01:25:14;;;;;;;22.70;12.97;;;;;;;-141.97;78.71;47588.28;4958254;29;20451;-79
2023/04/29 01:27:55;;;;;;;25.50;13.37;;;;;;;-141.97;78.33;47601.72;4954708;29;20232;-80
2023/04/29 01:30:36;;;;;;;23.33;12.60;;;;;;;-141.97;77.92;47553.69;4952491;28;20195;-80
2023/04/29 01:33:07;;;;;;;27.07;13.47;;;;;;;-141.97;77.38;47576.75;4937353;29;20514;-80
2023/04/29 01:35:40;;;;;;;21.17;13.13;;;;;;;-141.97;77.19;47588.28;4953911;29;20450;-80
2023/04/29 01:38:38;;;;;;;23.77;12.67;;;;;;;-141.97;76.84;47557.53;4937231;29;20479;-80
2023/04/29 01:41:14;;;;;;;26.10;13.13;;;;;;;-141.97;77.38;47547.91;4951931;29;20539;-80
2023/04/29 01:43:40;;;;;;;23.57;11.87;;;;;;;-141.97;77.10;47555.59;4953439;29;20426;-80
2023/04/29 01:46:08;;;;;;;23.63;12.90;;;;;;;-141.97;78.00;47549.84;4966567;28;20463;-80
2023/04/29 01:48:35;;;;;;;21.50;12.53;;;;;;;-141.97;77.64;47557.53;5052240;28;20414;-78
2023/04/29 01:51:01;;;;;;;20.40;12.00;;;;;;;-141.97;77.73;47580.59;5051884;28;20480;-80
2023/04/29 01:53:26;;;;;;;22.87;11.87;;;;;;;-141.97;78.42;47519.06;5052040;28;20407;-80
2023/04/29 01:55:52;;;;;;;21.60;12.47;;;;;;;-141.97;78.45;47572.91;5055681;28;20638;-81
2023/04/29 01:58:17;;;;;;;20.10;12.23;;;;;;;-141.97;78.07;47578.66;5074851;28;20177;-80
2023/04/29 02:00:43;;;;;;;20.67;12.10;;;;;;;-141.97;78.59;47586.34;5061709;28;20161;-81
2023/04/29 02:03:08;;;;;;;24.00;11.63;;;;;;;-141.97;78.63;47695.91;5052222;28;20215;-80
2023/04/29 02:05:34;;;;;;;21.07;11.73;;;;;;;-141.97;78.13;47592.13;5051894;28;20196;-80
2023/04/29 02:08:00;;;;;;;20.33;11.87;;;;;;;-141.97;78.37;47588.28;5051414;28;20157;-81
2023/04/29 02:10:26;;;;;;;19.50;11.77;;;;;;;-141.97;77.85;47553.69;5051643;28;20618;-80
2023/04/29 02:12:52;;;;;;;18.53;11.63;;;;;;;-141.97;77.16;47611.34;5051371;28;20200;-80
2023/04/29 02:15:18;;;;;;;19.27;11.17;;;;;;;-141.97;76.70;47538.28;5033484;28;20408;-81
2023/04/29 02:17:44;;;;;;;19.23;11.57;;;;;;;-141.97;76.91;47592.13;5033797;28;20962;-81
2023/04/29 02:20:10;;;;;;;20.83;11.97;;;;;;;-141.97;76.34;47534.44;5051611;28;20177;-81
2023/04/29 02:22:35;;;;;;;19.63;11.63;;;;;;;-141.97;75.67;47505.63;5051200;28;20184;-80
2023/04/29 02:25:01;;;;;;;19.33;12.00;;;;;;;-141.97;75.50;47659.38;5050802;28;20565;-81
2023/04/29 02:27:26;;;;;;;20.07;11.27;;;;;;;-141.97;74.96;47592.13;5051259;28;20169;-80
2023/04/29 02:29:52;;;;;;;22.47;10.90;;;;;;;-141.97;75.52;47586.34;5051128;28;20614;-80
2023/04/29 02:32:19;;;;;;;18.90;10.80;;;;;;;-141.97;76.94;47521.00;5051016;28;20188;-80
2023/04/29 02:34:45;;;;;;;20.43;11.70;;;;;;;-141.97;77.62;47553.69;5043154;28;20243;-81
2023/04/29 02:37:10;;;;;;;20.37;11.43;;;;;;;-141.97;78.30;47584.44;5030841;28;21083;-80
2023/04/29 02:39:36;;;;;;;19.57;11.53;;;;;;;-141.97;78.44;47592.13;5031510;28;20575;-80
2023/04/29 02:42:01;;;;;;;21.83;11.83;;;;;;;-141.97;77.94;47561.38;5030836;28;20192;-81
2023/04/29 02:44:27;;;;;;;19.60;11.80;;;;;;;-141.97;77.11;47553.69;5030642;28;20161;-81
2023/04/29 02:46:53;;;;;;;19.13;11.70;;;;;;;-141.97;76.42;47592.13;5031035;28;20279;-81
2023/04/29 02:49:18;;;;;;;20.30;12.27;;;;;;;-141.97;76.58;47532.53;5031066;28;20256;-80
2023/04/29 02:51:43;;;;;;;20.97;12.23;;;;;;;-141.97;76.64;47546.00;5031957;28;20155;-81
2023/04/29 02:54:10;;;;;;;24.93;11.80;;;;;;;-141.97;77.06;47536.38;5031238;28;20547;-80
2023/04/29 02:56:35;;;;;;;19.93;12.13;;;;;;;-141.97;77.38;47588.28;5031048;28;20165;-81
2023/04/29 02:59:01;;;;;;;21.93;12.23;;;;;;;-141.97;77.32;47551.75;5013453;28;20428;-81
2023/04/29 03:01:26;;;;;;;20.63;12.37;;;;;;;-141.97;77.00;47567.13;5031464;28;20177;-80
2023/04/29 03:03:53;;;;;;;21.33;11.93;;;;;;;-141.97;76.66;47542.16;5031619;28;20217;-81
2023/04/29 03:06:19;;;;;;;20.83;12.43;;;;;;;-141.97;76.83;47582.50;5030305;28;20194;-81
2023/04/29 03:08:45;;;;;;;22.13;12.77;;;;;;;-141.97;78.31;47542.16;5030848;28;20427;-80
2023/04/29 03:11:10;;;;;;;23.40;13.47;;;;;;;-141.97;79.95;47647.84;5031095;28;20177;-80
2023/04/29 03:13:37;;;;;;;24.40;14.03;;;;;;;-141.97;80.49;47542.16;5031255;28;20800;-80
2023/04/29 03:16:03;;;;;;;24.37;14.20;;;;;;;-141.97;80.38;47569.06;5031220;28;20169;-80
2023/04/29 03:18:28;;;;;;;24.37;13.77;;;;;;;-141.97;80.19;47592.13;5031086;28;20412;-80
2023/04/29 03:20:53;;;;;;;26.03;14.80;;;;;;;-141.97;80.56;47590.19;5030546;28;20240;-81
2023/04/29 03:23:19;;;;;;;26.00;14.23;;;;;;;-141.97;79.90;47619.03;5031057;28;20197;-80
2023/04/29 03:25:44;;;;;;;26.97;14.77;;;;;;;-141.97;79.20;47580.59;5031153;28;20198;-81
2023/04/29 03:28:09;;;;;;;23.60;13.53;;;;;;;-141.97;79.32;47559.44;5030723;28;20165;-80
2023/04/29 03:30:35;;;;;;;22.60;13.57;;;;;;;-141.97;78.90;47544.06;5030791;28;20243;-80
2023/04/29 03:33:00;;;;;;;27.03;14.50;;;;;;;-141.97;79.53;47572.91;5032832;28;20546;-80
2023/04/29 03:35:26;;;;;;;25.10;13.47;;;;;;;-141.97;79.41;47578.66;5033237;28;20162;-81
2023/04/29 03:37:52;;;;;;;26.23;14.57;;;;;;;-141.97;79.26;47540.22;5051450;28;20255;-80
2023/04/29 03:40:18;;;;;;;24.90;13.90;;;;;;;-141.97;79.92;47594.03;5052347;28;20166;-81
2023/04/29 03:42:43;;;;;;;24.60;13.90;;;;;;;-141.97;79.31;47647.84;5050775;28;20964;-81
2023/04/29 03:45:11;;;;;;;24.57;13.27;;;;;;;-141.97;78.68;47526.75;5050847;28;20189;-81
2023/04/29 03:47:37;;;;;;;28.77;15.87;;;;;;;-141.97;78.81;47630.56;5033786;28;20185;-79
2023/04/29 03:50:03;;;;;;;27.07;14.47;;;;;;;-141.97;78.73;47549.84;5050472;28;20402;-80
2023/04/29 03:52:28;;;;;;;26.97;14.90;;;;;;;-141.97;78.75;47572.91;5051706;28;20170;-80
2023/04/29 03:54:54;;;;;;;28.77;15.73;;;;;;;-141.97;78.36;47584.44;5054623;28;20166;-79
2023/04/29 03:57:19;;;;;;;28.37;15.33;;;;;;;-141.97;78.80;47561.38;5055408;28;20267;-80
2023/04/29 03:59:48;;;;;;;28.83;15.23;;;;;;;-141.97;77.72;47580.59;5055187;28;20161;-80
2023/04/29 04:02:14;;;;;;;27.03;15.13;;;;;;;-141.97;76.80;47588.28;5055952;28;20153;-80
2023/04/29 04:04:40;;;;;;;25.07;14.47;;;;;;;-141.97;76.90;47565.22;5053675;28;20406;-80
2023/04/29 04:07:05;;;;;;;27.03;14.47;;;;;;;-141.97;76.62;47580.59;5054565;28;20215;-81
2023/04/29 04:09:32;;;;;;;28.13;16.03;;;;;;;-141.97;77.41;47603.66;5054812;28;20617;-80
2023/04/29 04:11:57;;;;;;;28.00;15.67;;;;;;;-141.97;77.30;47549.84;5054471;28;20542;-79
2023/04/29 04:14:23;;;;;;;27.00;15.37;;;;;;;-141.97;77.48;47595.97;5054053;28;20404;-81
2023/04/29 04:16:49;;;;;;;33.67;19.97;;;;;;;-141.97;77.59;47561.38;5055215;28;20165;-81
2023/04/29 04:19:15;;;;;;;30.70;17.50;;;;;;;-141.97;78.25;47574.81;5048400;28;20157;-79
2023/04/29 04:21:41;;;;;;;39.10;23.43;;;;;;;-141.97;77.49;47580.59;5079100;28;20513;-78
2023/04/29 04:24:07;;;;;;;32.33;17.90;;;;;;;-141.97;77.64;47595.97;5052311;28;20820;-81
2023/04/29 04:26:33;;;;;;;41.87;24.57;;;;;;;-141.97;77.84;47595.97;5054311;28;20207;-82
2023/04/29 04:28:58;;;;;;;76.27;31.17;;;;;;;-141.97;77.88;47553.69;5054567;28;20241;-81
2023/04/29 04:31:24;;;;;;;59.90;25.77;;;;;;;-141.97;78.51;47561.38;5053663;28;20169;-81
2023/04/29 04:33:49;;;;;;;59.10;26.50;;;;;;;-141.97;78.43;47599.81;5055612;28;20200;-80
2023/04/29 04:36:15;;;;;;;41.17;21.43;;;;;;;-141.97;77.79;47572.91;5038367;28;20614;-81
2023/04/29 04:38:40;;;;;;;37.23;19.77;;;;;;;-141.97;77.36;47574.81;5053352;28;20217;-81
2023/04/29 04:41:07;;;;;;;31.57;17.00;;;;;;;-141.97;76.48;47572.91;5053823;28;20248;-78
2023/04/29 04:43:32;;;;;;;35.23;19.90;;;;;;;-141.97;76.08;47570.97;5053198;28;20196;-81
2023/04/29 04:45:57;;;;;;;39.93;21.73;;;;;;;-141.97;76.09;47655.53;5053374;28;20541;-80
2023/04/29 04:48:23;;;;;;;36.07;21.93;;;;;;;-141.97;75.85;47534.44;5053246;28;20169;-81
2023/04/29 04:50:48;;;;;;;32.83;19.13;;;;;;;-141.97;75.10;47599.81;5053255;28;20164;-80
2023/04/29 04:53:13;;;;;;;29.73;16.23;;;;;;;-141.97;74.73;47565.22;5053310;28;20161;-80
2023/04/29 04:55:39;;;;;;;26.87;15.90;;;;;;;-141.97;74.62;47580.59;5052923;28;20161;-81
2023/04/29 04:58:04;;;;;;;23.13;14.57;;;;;;;-141.97;75.35;47626.72;5053129;28;20172;-81
2023/04/29 05:00:30;;;;;;;25.73;14.27;;;;;;;-141.97;75.36;47569.06;5053019;28;20634;-80
2023/04/29 05:02:55;;;;;;;25.27;15.03;;;;;;;-141.97;75.18;47574.81;5053513;28;20168;-80
2023/04/29 05:05:21;;;;;;;19.03;11.93;;;;;;;-141.97;74.34;47632.47;5034404;28;20209;-79
2023/04/29 05:07:46;;;;;;;22.10;12.17;;;;;;;-141.97;74.83;47580.59;5052746;28;20180;-79
2023/04/29 05:10:12;;;;;;;27.90;15.70;;;;;;;-141.97;75.20;47592.13;5052306;28;20626;-79
2023/04/29 05:12:38;;;;;;;31.33;18.13;;;;;;;-141.97;76.41;47563.28;5052502;28;20180;-79
2023/04/29 05:15:04;;;;;;;29.50;16.87;;;;;;;-141.97;75.87;47590.19;5052947;28;20176;-80
2023/04/29 05:17:29;;;;;;;26.30;16.73;;;;;;;-141.97;75.00;47569.06;5052366;28;20244;-80
2023/04/29 05:19:55;;;;;;;23.40;14.47;;;;;;;-141.97;74.88;47576.75;5052446;28;20310;-80
2023/04/29 05:22:20;;;;;;;22.70;13.80;;;;;;;-141.97;74.26;47572.91;5052714;28;20201;-80
2023/04/29 05:24:47;;;;;;;20.93;13.27;;;;;;;-141.97;74.58;47574.81;5052192;28;20173;-79
2023/04/29 05:27:13;;;;;;;22.63;12.60;;;;;;;-141.97;73.69;47567.13;5052675;28;20247;-80
2023/04/29 05:29:38;;;;;;;25.10;12.87;;;;;;;-141.97;72.70;47578.66;5034844;28;20412;-79
2023/04/29 05:32:04;;;;;;;24.53;12.20;;;;;;;-141.97;72.58;47605.56;5052129;28;20498;-80
2023/04/29 05:34:30;;;;;;;21.43;12.63;;;;;;;-141.97;71.95;47592.13;5052387;28;20235;-79
2023/04/29 05:36:56;;;;;;;19.40;11.83;;;;;;;-141.97;71.11;47605.56;5051634;28;20220;-80
2023/04/29 05:39:21;;;;;;;18.20;11.17;;;;;;;-141.97;70.46;47584.44;5052504;28;20165;-80
2023/04/29 05:41:47;;;;;;;17.00;11.13;;;;;;;-141.97;69.42;47605.56;5052318;28;20397;-79
2023/04/29 05:44:12;;;;;;;19.40;11.73;;;;;;;-141.97;68.16;47578.66;5051772;28;20208;-80
2023/04/29 05:46:38;;;;;;;19.07;11.97;;;;;;;-141.97;68.12;47592.13;5052107;28;20200;-79
2023/04/29 05:49:04;;;;;;;18.30;11.30;;;;;;;-141.97;67.03;47586.34;5052036;28;20165;-80
2023/04/29 05:51:31;;;;;;;19.23;11.80;;;;;;;-141.97;64.88;47588.28;5034065;28;20295;-80
2023/04/29 05:53:58;;;;;;;22.37;11.73;;;;;;;-141.97;61.92;47588.28;5052130;28;20169;-80
2023/04/29 05:56:23;;;;;;;20.00;12.57;;;;;;;-141.97;61.66;47592.13;5051788;28;20161;-79
2023/04/29 05:58:49;;;;;;;19.23;11.57;;;;;;;-141.97;61.92;47563.28;5052192;28;20556;-79
2023/04/29 06:01:16;;;;;;;17.17;10.60;;;;;;;-141.97;60.95;47582.50;5051393;28;20165;-80
2023/04/29 06:03:41;;;;;;;15.67;10.70;;;;;;;-141.97;60.32;47619.03;5051319;28;20259;-81
2023/04/29 06:06:07;;;;;;;15.57;10.57;;;;;;;-141.97;60.98;47615.19;5034599;28;20193;-81
2023/04/29 06:08:33;;;;;;;18.00;10.73;;;;;;;-141.97;60.94;47605.56;5051445;28;20185;-81
2023/04/29 06:10:58;;;;;;;16.53;11.03;;;;;;;-141.97;61.02;47569.06;5051082;28;20606;-79
2023/04/29 06:13:25;;;;;;;18.60;10.63;;;;;;;-141.97;59.93;47682.47;5033659;28;20555;-79
2023/04/29 06:15:50;;;;;;;16.40;10.50;;;;;;;-141.97;59.17;47557.53;5051758;28;20516;-80
2023/04/29 06:18:15;;;;;;;15.83;10.63;;;;;;;-141.97;58.17;47607.50;5053101;28;20168;-80
2023/04/29 06:20:41;;;;;;;14.90;10.33;;;;;;;-141.97;56.59;47534.44;5056895;28;20173;-81
2023/04/29 06:23:07;;;;;;;19.40;12.30;;;;;;;-141.97;55.23;47557.53;5055925;28;20170;-81
2023/04/29 06:25:33;;;;;;;18.27;11.97;;;;;;;-141.97;55.14;47538.28;5055576;28;20207;-80
2023/04/29 06:27:59;;;;;;;20.20;12.00;;;;;;;-141.97;54.95;47605.56;5054418;28;20248;-81
2023/04/29 06:30:25;;;;;;;17.20;11.67;;;;;;;-141.97;54.11;47584.44;5052833;28;20165;-80
2023/04/29 06:32:50;;;;;;;17.87;12.07;;;;;;;-141.97;53.98;47549.84;5051716;28;20165;-81
2023/04/29 06:35:16;;;;;;;18.03;12.00;;;;;;;-141.97;52.60;47569.06;5052449;28;20219;-81
2023/04/29 06:37:41;;;;;;;18.50;11.53;;;;;;;-141.97;52.17;47711.28;5052762;28;20256;-80
2023/04/29 06:40:07;;;;;;;17.07;10.93;;;;;;;-141.97;49.99;47674.78;5034462;28;20166;-81
2023/04/29 06:42:33;;;;;;;16.13;10.23;;;;;;;-141.97;49.52;47569.06;5054875;28;20208;-81
2023/04/29 06:44:58;;;;;;;15.80;9.10;;;;;;;-141.97;47.98;47653.63;5065347;28;20200;-81
2023/04/29 06:47:24;;;;;;;14.37;9.10;;;;;;;-141.97;48.84;47747.81;5075337;28;20169;-82
2023/04/29 06:49:49;;;;;;;15.37;9.30;;;;;;;-141.97;49.38;47592.13;5053239;28;20208;-81
2023/04/29 06:52:15;;;;;;;13.53;9.50;;;;;;;-141.97;48.99;47594.03;5053764;28;20208;-81
2023/04/29 06:54:40;;;;;;;13.90;8.83;;;;;;;-141.97;48.11;47565.22;5034341;28;20223;-81
2023/04/29 06:57:06;;;;;;;22.20;11.30;;;;;;;-141.97;46.51;47594.03;5033855;28;20529;-81
2023/04/29 06:59:35;;;;;;;12.80;9.00;;;;;;;-141.97;45.93;47665.16;5033097;28;20176;-83
2023/04/29 07:02:00;;;;;;;14.10;9.53;;;;;;;-141.97;45.29;47549.84;5051738;28;20622;-80
2023/04/29 07:04:25;;;;;;;13.07;8.67;;;;;;;-141.97;44.95;47553.69;5052487;28;20196;-80
2023/04/29 07:06:52;;;;;;;12.43;8.07;;;;;;;-141.97;45.04;47544.06;5052127;28;20243;-81
2023/04/29 07:09:18;;;;;;;20.93;11.30;;;;;;;-141.97;44.58;47684.38;5052115;28;20644;-81
2023/04/29 07:11:43;;;;;;;15.57;8.40;;;;;;;-141.97;43.99;47563.28;5052304;28;20169;-81
2023/04/29 07:14:09;;;;;;;15.33;8.53;;;;;;;-141.97;43.96;47622.88;5052896;28;20199;-81
2023/04/29 07:16:34;;;;;;;16.17;10.60;;;;;;;-141.97;42.69;47486.41;5052478;28;20207;-81
2023/04/29 07:19:00;;;;;;;12.53;7.50;;;;;;;-141.97;41.48;47570.97;5059336;28;20154;-80
2023/04/29 07:21:25;;;;;;;10.50;7.60;;;;;;;-141.97;41.89;47569.06;5063802;28;20166;-81
2023/04/29 07:23:51;;;;;;;12.77;8.10;;;;;;;-141.97;42.53;47557.53;5035628;28;20169;-82
2023/04/29 07:26:17;;;;;;;13.63;8.03;;;;;;;-141.97;41.89;47546.00;5053515;28;20229;-81
2023/04/29 07:28:43;;;;;;;10.13;7.47;;;;;;;-141.97;41.93;47532.53;5051927;28;20174;-81
2023/04/29 07:31:11;;;;;;;12.73;7.77;;;;;;;-141.97;41.44;47511.38;5054965;28;20157;-82
2023/04/29 07:33:37;;;;;;;12.33;7.50;;;;;;;-141.97;41.49;47536.38;5055189;28;20539;-81
2023/04/29 07:36:03;;;;;;;15.97;8.83;;;;;;;-141.97;41.13;47511.38;5054627;28;20177;-80
2023/04/29 07:38:29;;;;;;;18.47;8.60;;;;;;;-141.97;40.55;47461.41;5054984;28;20758;-81
2023/04/29 07:40:55;;;;;;;10.40;7.47;;;;;;;-141.97;40.49;47521.00;5036617;28;20169;-79
2023/04/29 07:43:20;;;;;;;12.03;7.60;;;;;;;-141.97;39.63;47553.69;5054788;28;20227;-81
2023/04/29 07:45:47;;;;;;;13.07;7.43;;;;;;;-141.97;39.28;47546.00;5054422;28;20196;-81
2023/04/29 07:48:12;;;;;;;12.93;7.20;;;;;;;-141.97;39.38;47555.59;5054533;28;20817;-81
2023/04/29 07:50:38;;;;;;;9.73;7.47;;;;;;;-141.97;39.50;47517.16;5054777;28;20166;-80
2023/04/29 07:53:03;;;;;;;11.53;7.10;;;;;;;-141.97;39.97;47557.53;5054562;28;20165;-80
2023/04/29 07:55:29;;;;;;;11.37;7.40;;;;;;;-141.97;39.84;47572.91;5054695;28;20171;-81
2023/04/29 07:57:56;;;;;;;10.07;7.30;;;;;;;-141.97;40.13;47511.38;5054920;28;20637;-80
2023/04/29 08:00:22;;;;;;;11.77;7.27;;;;;;;-141.97;40.81;47515.22;5055132;28;20153;-81
2023/04/29 08:02:54;;;;;;;12.50;8.37;;;;;;;-141.97;40.11;47532.53;5054122;28;20534;-80
2023/04/29 08:05:21;;;;;;;10.27;7.23;;;;;;;-141.97;40.13;47530.59;5054824;28;20272;-80
2023/04/29 08:07:47;;;;;;;11.33;6.70;;;;;;;-141.97;40.01;47580.59;5054480;28;20166;-82
2023/04/29 08:10:13;;;;;;;10.80;6.80;;;;;;;-141.97;39.56;47526.75;5053817;28;20184;-81
2023/04/29 08:12:39;;;;;;;10.57;6.87;;;;;;;-141.97;38.90;47534.44;5053764;28;20922;-80
2023/04/29 08:15:05;;;;;;;9.53;7.00;;;;;;;-141.97;39.01;47544.06;5054146;28;20157;-81
2023/04/29 08:17:30;;;;;;;11.80;6.93;;;;;;;-141.97;38.70;47547.91;5054497;28;20161;-81
2023/04/29 08:19:56;;;;;;;10.20;7.10;;;;;;;-141.97;37.85;47549.84;5054060;28;20161;-80
2023/04/29 08:22:21;;;;;;;11.27;7.37;;;;;;;-141.97;37.89;47553.69;5053880;28;20177;-80
2023/04/29 08:24:48;;;;;;;13.17;7.13;;;;;;;-141.97;37.71;47553.69;5053597;28;20169;-82
2023/04/29 08:27:14;;;;;;;10.83;7.77;;;;;;;-141.97;37.25;47484.47;5053426;28;20211;-80
2023/04/29 08:29:42;;;;;;;10.43;7.47;;;;;;;-141.97;37.42;47509.47;5053170;28;20157;-80
2023/04/29 08:32:08;;;;;;;11.33;7.40;;;;;;;-141.97;37.82;47678.63;5053647;28;20173;-80
2023/04/29 08:34:35;;;;;;;10.93;7.17;;;;;;;-141.97;37.19;47471.03;5053216;28;20169;-80
2023/04/29 08:37:01;;;;;;;9.53;7.00;;;;;;;-141.97;36.93;47524.84;5053070;28;20308;-80
2023/04/29 08:39:30;;;;;;;12.43;7.40;;;;;;;-141.97;36.88;47530.59;5052354;28;20610;-81
2023/04/29 08:41:56;;;;;;;10.30;7.27;;;;;;;-141.97;36.01;47526.75;5053349;28;20169;-81
2023/04/29 08:44:22;;;;;;;12.03;8.23;;;;;;;-141.97;35.90;47517.16;5053520;28;20161;-80
2023/04/29 08:46:49;;;;;;;12.10;8.13;;;;;;;-141.97;35.58;47505.63;5053646;28;20199;-80
2023/04/29 08:49:15;;;;;;;12.57;7.80;;;;;;;-141.97;35.39;47505.63;5034959;28;20192;-80
2023/04/29 08:51:40;;;;;;;14.23;9.10;;;;;;;-141.97;35.18;47505.63;5053133;28;20170;-80
2023/04/29 08:54:06;;;;;;;15.97;9.80;;;;;;;-141.97;34.09;47482.56;5053204;28;20621;-80
2023/04/29 08:56:32;;;;;;;10.87;7.77;;;;;;;-141.97;34.66;47540.22;5053283;28;20172;-81
2023/04/29 08:59:00;;;;;;;10.10;7.43;;;;;;;-141.97;35.23;47461.41;5053241;28;20162;-80
2023/04/29 09:01:29;;;;;;;9.93;7.27;;;;;;;-141.97;35.68;47538.28;5052923;28;20538;-79
2023/04/29 09:04:13;;;;;;;11.43;7.53;;;;;;;-141.97;35.40;47534.44;5054069;28;20214;-81
2023/04/29 09:06:39;;;;;;;11.97;7.47;;;;;;;-141.97;35.04;47503.69;5039020;28;20204;-79
2023/04/29 09:09:05;;;;;;;10.90;7.47;;;;;;;-141.97;34.74;47501.78;5051650;28;20181;-80
2023/04/29 09:11:32;;;;;;;11.33;7.27;;;;;;;-141.97;34.83;47507.53;5071442;28;20170;-80
2023/04/29 09:14:01;;;;;;;10.03;7.23;;;;;;;-141.97;35.01;47488.31;5054003;28;20204;-80
2023/04/29 09:16:28;;;;;;;11.87;7.70;;;;;;;-141.97;35.57;47534.44;5053025;28;20219;-79
2023/04/29 09:18:54;;;;;;;10.70;7.20;;;;;;;-141.97;36.02;47488.31;5053079;28;20169;-80
2023/04/29 09:21:24;;;;;;;9.87;7.43;;;;;;;-141.97;36.18;47497.94;5052785;28;20602;-81
2023/04/29 09:23:52;;;;;;;16.40;9.20;;;;;;;-141.97;36.35;47542.16;5052279;28;20215;-81
2023/04/29 09:26:18;;;;;;;14.43;8.30;;;;;;;-141.97;35.96;47503.69;5052761;28;20196;-81
2023/04/29 09:28:46;;;;;;;9.83;7.23;;;;;;;-141.97;35.79;47557.53;5034396;28;20181;-79
2023/04/29 09:31:12;;;;;;;12.10;6.93;;;;;;;-141.97;35.39;47486.41;5051917;28;20245;-79
2023/04/29 09:33:56;;;;;;;10.93;6.87;;;;;;;-141.97;34.82;47503.69;5053073;28;20169;-80
2023/04/29 09:36:46;;;;;;;10.30;6.70;;;;;;;-141.97;34.05;47488.31;5034195;28;20169;-79
2023/04/29 09:39:17;;;;;;;12.30;6.90;;;;;;;-141.97;34.07;47515.22;5013583;28;20175;-80
2023/04/29 09:41:52;;;;;;;9.40;7.10;;;;;;;-141.97;33.86;47519.06;5013295;28;20151;-80
2023/04/29 09:44:28;;;;;;;9.67;7.00;;;;;;;-141.97;33.76;47669.00;5011883;28;20166;-82
2023/04/29 09:47:04;;;;;;;11.77;6.53;;;;;;;-141.97;33.58;47515.22;5012881;28;20178;-80
2023/04/29 09:49:39;;;;;;;12.10;7.70;;;;;;;-141.97;33.35;47521.00;5012329;28;20194;-80
2023/04/29 09:52:39;;;;;;;11.90;6.50;;;;;;;-141.97;32.57;47538.28;5010375;28;20178;-79
2023/04/29 09:55:05;;;;;;;10.23;7.10;;;;;;;-141.97;33.38;47538.28;5008692;28;20179;-80
2023/04/29 09:57:39;;;;;;;10.63;7.20;;;;;;;-141.97;33.13;47476.78;4992599;28;20175;-80
2023/04/29 10:00:05;;;;;;;10.40;6.60;;;;;;;-141.97;33.29;47453.72;4993194;28;20178;-81
2023/04/29 10:02:31;;;;;;;10.70;6.50;;;;;;;-141.97;33.09;47499.84;4992936;28;20167;-81
2023/04/29 10:04:57;;;;;;;10.13;6.50;;;;;;;-141.97;32.49;47499.84;4993354;28;20218;-79
2023/04/29 10:07:25;;;;;;;13.30;6.57;;;;;;;-141.97;32.33;47542.16;4992789;28;20170;-80
2023/04/29 10:09:51;;;;;;;9.23;6.00;;;;;;;-141.97;32.13;47474.88;4993034;28;20159;-79
2023/04/29 10:12:19;;;;;;;11.23;6.50;;;;;;;-141.97;31.38;47492.16;4992399;28;20532;-79
2023/04/29 10:14:56;;;;;;;9.63;6.27;;;;;;;-141.97;30.22;47482.56;4992653;28;20160;-79
2023/04/29 10:17:36;;;;;;;6.80;5.80;;;;;;;-141.97;30.40;47482.56;4993530;28;20682;-79
2023/04/29 10:20:04;;;;;;;8.73;6.37;;;;;;;-141.97;31.29;47503.69;4994248;28;20667;-78
2023/04/29 10:22:53;;;;;;;8.03;5.87;;;;;;;-141.97;32.02;47519.06;5007692;28;20159;-78
2023/04/29 10:25:20;;;;;;;9.33;5.80;;;;;;;-141.97;31.30;47522.91;5012786;28;20186;-80
2023/04/29 10:27:47;;;;;;;8.97;5.97;;;;;;;-141.97;30.86;47496.00;5027691;28;20182;-79
2023/04/29 10:30:17;;;;;;;8.07;6.20;;;;;;;-141.97;29.73;47532.53;5011109;28;20300;-79
2023/04/29 10:32:44;;;;;;;8.17;6.07;;;;;;;-141.97;29.82;47672.84;5013793;28;20249;-80
2023/04/29 10:35:12;;;;;;;7.90;5.67;;;;;;;-141.97;29.30;47509.47;5012110;28;20217;-80
2023/04/29 10:37:38;;;;;;;10.47;5.87;;;;;;;-141.97;29.25;47538.28;5033324;28;20224;-79
2023/04/29 10:40:14;;;;;;;8.50;5.53;;;;;;;-141.97;28.59;47544.06;5052082;28;20569;-80
2023/04/29 10:42:47;;;;;;;11.57;6.40;;;;;;;-141.97;29.05;47501.78;5051398;28;20165;-79
2023/04/29 10:45:35;;;;;;;7.40;5.40;;;;;;;-141.97;28.60;47472.94;5051477;28;20190;-80
2023/04/29 10:48:01;;;;;;;9.03;6.10;;;;;;;-141.97;28.26;47507.53;5033442;28;20165;-80
2023/04/29 10:50:30;;;;;;;8.63;5.77;;;;;;;-141.97;28.40;47540.22;5051543;28;20241;-79
2023/04/29 10:52:56;;;;;;;11.33;5.47;;;;;;;-141.97;27.96;47465.25;5050656;28;20547;-79
2023/04/29 10:55:23;;;;;;;9.37;5.50;;;;;;;-141.97;27.19;47522.91;5051488;28;20164;-80
2023/04/29 10:57:52;;;;;;;6.83;5.07;;;;;;;-141.97;27.14;47453.72;5033413;28;20173;-80
2023/04/29 11:00:25;;;;;;;9.90;5.90;;;;;;;-141.97;27.22;47480.63;5051054;28;20173;-80
2023/04/29 11:02:52;;;;;;;9.23;5.90;;;;;;;-141.97;27.26;47367.25;5033006;28;20268;-80
2023/04/29 11:05:32;;;;;;;9.83;5.17;;;;;;;-141.97;27.35;47496.00;5052533;28;20231;-80